sensor_id;sensor_type;location;lat;lon;timestamp;temperature;humidity
46139;DHT22;32398;49.112;8.598;2024-01-15T00:01:58;-1.70;99.90
46139;DHT22;32398;49.112;8.598;2024-01-15T00:04:24;-1.70;99.90
46139;DHT22;32398;49.112;8.598;2024-01-15T00:06:51;-1.70;99.90
46139;DHT22;32398;49.112;8.598;2024-01-15T00:09:18;-1.70;99.90
46139;DHT22;32398;49.112;8.598;2024-01-15T00:11:45;-1.70;99.90
46139;DHT22;32398;49.112;8.598;2024-01-15T00:14:12;-1.70;99.90
46139;DHT22;32398;49.112;8.598;2024-01-15T00:16:40;-1.70;99.90
46139;DHT22;32398;49.112;8.598;2024-01-15T00:19:06;-1.60;99.90
46139;DHT22;32398;49.112;8.598;2024-01-15T00:21:33;-1.60;99.90
46139;DHT22;32398;49.112;8.598;2024-01-15T00:24:00;-1.60;99.90
46139;DHT22;32398;49.112;8.598;2024-01-15T00:26:27;-1.60;99.90
46139;DHT22;32398;49.112;8.598;2024-01-15T00:28:55;-1.60;99.90
46139;DHT22;32398;49.112;8.598;2024-01-15T00:31:21;-1.60;99.90
46139;DHT22;32398;49.112;8.598;2024-01-15T00:33:48;-1.70;99.90
46139;DHT22;32398;49.112;8.598;2024-01-15T00:36:15;-1.60;99.90
46139;DHT22;32398;49.112;8.598;2024-01-15T00:38:42;-1.60;99.90
46139;DHT22;32398;49.112;8.598;2024-01-15T00:41:08;-1.60;99.90
46139;DHT22;32398;49.112;8.598;2024-01-15T00:43:35;-1.60;99.90
46139;DHT22;32398;49.112;8.598;2024-01-15T00:46:03;-1.60;99.90
46139;DHT22;32398;49.112;8.598;2024-01-15T00:48:30;-1.60;99.90
46139;DHT22;32398;49.112;8.598;2024-01-15T00:50:57;-1.60;99.90
46139;DHT22;32398;49.112;8.598;2024-01-15T00:53:23;-1.60;99.90
46139;DHT22;32398;49.112;8.598;2024-01-15T00:55:50;-1.60;99.90
46139;DHT22;32398;49.112;8.598;2024-01-15T00:58:18;-1.60;99.90
46139;DHT22;32398;49.112;8.598;2024-01-15T01:00:45;-1.60;99.90
46139;DHT22;32398;49.112;8.598;2024-01-15T01:03:13;-1.60;99.90
46139;DHT22;32398;49.112;8.598;2024-01-15T01:05:40;-1.60;99.90
46139;DHT22;32398;49.112;8.598;2024-01-15T01:08:07;-1.60;99.90
46139;DHT22;32398;49.112;8.598;2024-01-15T01:10:33;-1.60;99.90
46139;DHT22;32398;49.112;8.598;2024-01-15T01:13:00;-1.60;99.90
46139;DHT22;32398;49.112;8.598;2024-01-15T01:15:27;-1.50;99.90
46139;DHT22;32398;49.112;8.598;2024-01-15T01:17:53;-1.50;99.90
46139;DHT22;32398;49.112;8.598;2024-01-15T01:20:21;-1.60;99.90
46139;DHT22;32398;49.112;8.598;2024-01-15T01:22:48;-1.60;99.90
46139;DHT22;32398;49.112;8.598;2024-01-15T01:25:14;-1.50;99.90
46139;DHT22;32398;49.112;8.598;2024-01-15T01:27:41;-1.60;99.90
46139;DHT22;32398;49.112;8.598;2024-01-15T01:30:08;-1.60;99.90
46139;DHT22;32398;49.112;8.598;2024-01-15T01:32:35;-1.50;99.90
46139;DHT22;32398;49.112;8.598;2024-01-15T01:35:01;-1.60;99.90
46139;DHT22;32398;49.112;8.598;2024-01-15T01:37:29;-1.60;99.90
46139;DHT22;32398;49.112;8.598;2024-01-15T01:39:56;-1.50;99.90
46139;DHT22;32398;49.112;8.598;2024-01-15T01:42:22;-1.50;99.90
46139;DHT22;32398;49.112;8.598;2024-01-15T01:44:49;-1.50;99.90
46139;DHT22;32398;49.112;8.598;2024-01-15T01:47:16;-1.50;99.90
46139;DHT22;32398;49.112;8.598;2024-01-15T01:49:43;-1.50;99.90
46139;DHT22;32398;49.112;8.598;2024-01-15T01:52:10;-1.50;99.90
46139;DHT22;32398;49.112;8.598;2024-01-15T01:54:38;-1.50;99.90
46139;DHT22;32398;49.112;8.598;2024-01-15T01:57:06;-1.50;99.90
46139;DHT22;32398;49.112;8.598;2024-01-15T01:59:34;-1.60;99.90
46139;DHT22;32398;49.112;8.598;2024-01-15T02:02:04;-1.50;99.90
46139;DHT22;32398;49.112;8.598;2024-01-15T02:04:31;-1.60;99.90
46139;DHT22;32398;49.112;8.598;2024-01-15T02:06:58;-1.60;99.90
46139;DHT22;32398;49.112;8.598;2024-01-15T02:09:25;-1.50;99.90
46139;DHT22;32398;49.112;8.598;2024-01-15T02:11:53;-1.50;99.90
46139;DHT22;32398;49.112;8.598;2024-01-15T02:14:20;-1.60;99.90
46139;DHT22;32398;49.112;8.598;2024-01-15T02:16:47;-1.60;99.90
46139;DHT22;32398;49.112;8.598;2024-01-15T02:19:15;-1.50;99.90
46139;DHT22;32398;49.112;8.598;2024-01-15T02:21:43;-1.50;99.90
46139;DHT22;32398;49.112;8.598;2024-01-15T02:24:11;-1.50;99.90
46139;DHT22;32398;49.112;8.598;2024-01-15T02:26:38;-1.50;99.90
46139;DHT22;32398;49.112;8.598;2024-01-15T02:29:05;-1.50;99.90
46139;DHT22;32398;49.112;8.598;2024-01-15T02:31:33;-1.50;99.90
46139;DHT22;32398;49.112;8.598;2024-01-15T02:34:00;-1.50;99.90
46139;DHT22;32398;49.112;8.598;2024-01-15T02:36:27;-1.50;99.90
46139;DHT22;32398;49.112;8.598;2024-01-15T02:38:53;-1.20;99.90
46139;DHT22;32398;49.112;8.598;2024-01-15T02:41:22;-1.50;99.90
46139;DHT22;32398;49.112;8.598;2024-01-15T02:43:48;-1.50;99.90
46139;DHT22;32398;49.112;8.598;2024-01-15T02:46:17;-1.50;99.90
46139;DHT22;32398;49.112;8.598;2024-01-15T02:48:43;-1.50;99.90
46139;DHT22;32398;49.112;8.598;2024-01-15T02:51:10;-1.50;99.90
46139;DHT22;32398;49.112;8.598;2024-01-15T02:53:37;-1.50;99.90
46139;DHT22;32398;49.112;8.598;2024-01-15T02:56:03;-1.50;99.90
46139;DHT22;32398;49.112;8.598;2024-01-15T02:58:31;-1.50;99.90
46139;DHT22;32398;49.112;8.598;2024-01-15T03:00:58;-1.50;99.90
46139;DHT22;32398;49.112;8.598;2024-01-15T03:03:25;-1.50;99.90
46139;DHT22;32398;49.112;8.598;2024-01-15T03:05:51;-1.50;99.90
46139;DHT22;32398;49.112;8.598;2024-01-15T03:08:18;-1.50;99.90
46139;DHT22;32398;49.112;8.598;2024-01-15T03:10:44;-1.50;99.90
46139;DHT22;32398;49.112;8.598;2024-01-15T03:13:11;-1.50;99.90
46139;DHT22;32398;49.112;8.598;2024-01-15T03:15:39;-1.50;99.90
46139;DHT22;32398;49.112;8.598;2024-01-15T03:18:06;-1.50;99.90
46139;DHT22;32398;49.112;8.598;2024-01-15T03:20:32;-1.50;99.90
46139;DHT22;32398;49.112;8.598;2024-01-15T03:22:59;-1.50;99.90
46139;DHT22;32398;49.112;8.598;2024-01-15T03:25:25;-1.50;99.90
46139;DHT22;32398;49.112;8.598;2024-01-15T03:27:52;-1.50;99.90
46139;DHT22;32398;49.112;8.598;2024-01-15T03:30:19;-1.50;99.90
46139;DHT22;32398;49.112;8.598;2024-01-15T03:32:48;-1.50;99.90
46139;DHT22;32398;49.112;8.598;2024-01-15T03:35:15;-1.50;99.90
46139;DHT22;32398;49.112;8.598;2024-01-15T03:37:42;-1.50;99.90
46139;DHT22;32398;49.112;8.598;2024-01-15T03:40:09;-1.50;99.90
46139;DHT22;32398;49.112;8.598;2024-01-15T03:42:35;-1.50;99.90
46139;DHT22;32398;49.112;8.598;2024-01-15T03:45:02;-1.50;99.90
46139;DHT22;32398;49.112;8.598;2024-01-15T03:47:29;-1.50;99.90
46139;DHT22;32398;49.112;8.598;2024-01-15T03:49:57;-1.50;99.90
46139;DHT22;32398;49.112;8.598;2024-01-15T03:52:24;-1.50;99.90
46139;DHT22;32398;49.112;8.598;2024-01-15T03:54:51;-1.50;99.90
46139;DHT22;32398;49.112;8.598;2024-01-15T03:57:17;-1.50;99.90
46139;DHT22;32398;49.112;8.598;2024-01-15T03:59:44;-1.50;99.90
46139;DHT22;32398;49.112;8.598;2024-01-15T04:02:12;-1.50;99.90
46139;DHT22;32398;49.112;8.598;2024-01-15T04:04:40;-1.40;99.90
46139;DHT22;32398;49.112;8.598;2024-01-15T04:07:08;-1.40;99.90
46139;DHT22;32398;49.112;8.598;2024-01-15T04:09:35;-1.50;99.90
46139;DHT22;32398;49.112;8.598;2024-01-15T04:12:02;-1.50;99.90
46139;DHT22;32398;49.112;8.598;2024-01-15T04:14:28;-1.40;99.90
46139;DHT22;32398;49.112;8.598;2024-01-15T04:16:55;-1.50;99.90
46139;DHT22;32398;49.112;8.598;2024-01-15T04:19:22;-1.40;99.90
46139;DHT22;32398;49.112;8.598;2024-01-15T04:21:48;-1.40;99.90
46139;DHT22;32398;49.112;8.598;2024-01-15T04:24:17;-1.40;99.90
46139;DHT22;32398;49.112;8.598;2024-01-15T04:26:43;-1.40;99.90
46139;DHT22;32398;49.112;8.598;2024-01-15T04:29:10;-1.40;99.90
46139;DHT22;32398;49.112;8.598;2024-01-15T04:31:37;-1.40;99.90
46139;DHT22;32398;49.112;8.598;2024-01-15T04:34:04;-1.40;99.90
46139;DHT22;32398;49.112;8.598;2024-01-15T04:36:30;-1.40;99.90
46139;DHT22;32398;49.112;8.598;2024-01-15T04:38:57;-1.40;99.90
46139;DHT22;32398;49.112;8.598;2024-01-15T04:41:25;-1.40;99.90
46139;DHT22;32398;49.112;8.598;2024-01-15T04:43:51;-1.40;99.90
46139;DHT22;32398;49.112;8.598;2024-01-15T04:46:18;-1.40;99.90
46139;DHT22;32398;49.112;8.598;2024-01-15T04:48:45;-1.40;99.90
46139;DHT22;32398;49.112;8.598;2024-01-15T04:51:12;-1.40;99.90
46139;DHT22;32398;49.112;8.598;2024-01-15T04:53:39;-1.40;99.90
46139;DHT22;32398;49.112;8.598;2024-01-15T04:56:06;-1.40;99.90
46139;DHT22;32398;49.112;8.598;2024-01-15T04:58:34;-1.40;99.90
46139;DHT22;32398;49.112;8.598;2024-01-15T05:01:00;-1.40;99.90
46139;DHT22;32398;49.112;8.598;2024-01-15T05:03:27;-1.40;99.90
46139;DHT22;32398;49.112;8.598;2024-01-15T05:05:53;-1.40;99.90
46139;DHT22;32398;49.112;8.598;2024-01-15T05:08:20;-1.40;99.90
46139;DHT22;32398;49.112;8.598;2024-01-15T05:10:46;-1.40;99.90
46139;DHT22;32398;49.112;8.598;2024-01-15T05:13:13;-1.30;99.90
46139;DHT22;32398;49.112;8.598;2024-01-15T05:15:42;-1.30;99.90
46139;DHT22;32398;49.112;8.598;2024-01-15T05:18:09;-1.40;99.90
46139;DHT22;32398;49.112;8.598;2024-01-15T05:20:36;-1.30;99.90
46139;DHT22;32398;49.112;8.598;2024-01-15T05:23:02;-1.30;99.90
46139;DHT22;32398;49.112;8.598;2024-01-15T05:25:29;-1.30;99.90
46139;DHT22;32398;49.112;8.598;2024-01-15T05:27:56;-1.30;99.90
46139;DHT22;32398;49.112;8.598;2024-01-15T05:30:23;-1.30;99.90
46139;DHT22;32398;49.112;8.598;2024-01-15T05:32:51;-1.30;99.90
46139;DHT22;32398;49.112;8.598;2024-01-15T05:35:18;-1.30;99.90
46139;DHT22;32398;49.112;8.598;2024-01-15T05:37:44;-1.30;99.90
46139;DHT22;32398;49.112;8.598;2024-01-15T05:40:11;-1.40;99.90
46139;DHT22;32398;49.112;8.598;2024-01-15T05:42:38;-1.30;99.90
46139;DHT22;32398;49.112;8.598;2024-01-15T05:45:05;-1.30;99.90
46139;DHT22;32398;49.112;8.598;2024-01-15T05:47:32;-1.30;99.90
46139;DHT22;32398;49.112;8.598;2024-01-15T05:50:00;-1.30;99.90
46139;DHT22;32398;49.112;8.598;2024-01-15T05:52:27;-1.30;99.90
46139;DHT22;32398;49.112;8.598;2024-01-15T05:54:53;-1.30;99.90
46139;DHT22;32398;49.112;8.598;2024-01-15T05:57:20;-1.30;99.90
46139;DHT22;32398;49.112;8.598;2024-01-15T05:59:47;-1.30;99.90
46139;DHT22;32398;49.112;8.598;2024-01-15T06:02:13;-1.30;99.90
46139;DHT22;32398;49.112;8.598;2024-01-15T06:04:40;-1.30;99.90
46139;DHT22;32398;49.112;8.598;2024-01-15T06:07:08;-1.30;99.90
46139;DHT22;32398;49.112;8.598;2024-01-15T06:09:34;-1.30;99.90
46139;DHT22;32398;49.112;8.598;2024-01-15T06:12:01;-1.30;99.90
46139;DHT22;32398;49.112;8.598;2024-01-15T06:14:28;-1.30;99.90
46139;DHT22;32398;49.112;8.598;2024-01-15T06:16:55;-1.30;99.90
46139;DHT22;32398;49.112;8.598;2024-01-15T06:19:21;-1.20;99.90
46139;DHT22;32398;49.112;8.598;2024-01-15T06:21:48;-1.30;99.90
46139;DHT22;32398;49.112;8.598;2024-01-15T06:24:16;-1.20;99.90
46139;DHT22;32398;49.112;8.598;2024-01-15T06:26:46;-1.20;99.90
46139;DHT22;32398;49.112;8.598;2024-01-15T06:29:12;-1.20;99.90
46139;DHT22;32398;49.112;8.598;2024-01-15T06:31:39;-1.20;99.90
46139;DHT22;32398;49.112;8.598;2024-01-15T06:34:06;-1.20;99.90
46139;DHT22;32398;49.112;8.598;2024-01-15T06:36:34;-1.20;99.90
46139;DHT22;32398;49.112;8.598;2024-01-15T06:39:01;-1.20;99.90
46139;DHT22;32398;49.112;8.598;2024-01-15T06:41:29;-1.20;99.90
46139;DHT22;32398;49.112;8.598;2024-01-15T06:43:56;-1.20;99.90
46139;DHT22;32398;49.112;8.598;2024-01-15T06:46:22;-1.20;99.90
46139;DHT22;32398;49.112;8.598;2024-01-15T06:48:49;-1.10;99.90
46139;DHT22;32398;49.112;8.598;2024-01-15T06:51:16;-1.20;99.90
46139;DHT22;32398;49.112;8.598;2024-01-15T06:53:42;-1.10;99.90
46139;DHT22;32398;49.112;8.598;2024-01-15T06:56:09;-1.10;99.90
46139;DHT22;32398;49.112;8.598;2024-01-15T06:58:37;-1.10;99.90
46139;DHT22;32398;49.112;8.598;2024-01-15T07:01:04;-1.20;99.90
46139;DHT22;32398;49.112;8.598;2024-01-15T07:03:31;-1.10;99.90
46139;DHT22;32398;49.112;8.598;2024-01-15T07:05:58;-1.10;99.90
46139;DHT22;32398;49.112;8.598;2024-01-15T07:08:24;-1.10;99.90
46139;DHT22;32398;49.112;8.598;2024-01-15T07:10:51;-1.10;99.90
46139;DHT22;32398;49.112;8.598;2024-01-15T07:13:18;-1.10;99.90
46139;DHT22;32398;49.112;8.598;2024-01-15T07:15:46;-1.10;99.90
46139;DHT22;32398;49.112;8.598;2024-01-15T07:18:12;-1.10;99.90
46139;DHT22;32398;49.112;8.598;2024-01-15T07:20:39;-1.10;99.90
46139;DHT22;32398;49.112;8.598;2024-01-15T07:23:06;-1.10;99.90
46139;DHT22;32398;49.112;8.598;2024-01-15T07:25:32;-1.10;99.90
46139;DHT22;32398;49.112;8.598;2024-01-15T07:27:59;-1.00;99.90
46139;DHT22;32398;49.112;8.598;2024-01-15T07:30:25;-1.10;99.90
46139;DHT22;32398;49.112;8.598;2024-01-15T07:32:53;-1.10;99.90
46139;DHT22;32398;49.112;8.598;2024-01-15T07:35:20;-1.00;99.90
46139;DHT22;32398;49.112;8.598;2024-01-15T07:37:47;-1.10;99.90
46139;DHT22;32398;49.112;8.598;2024-01-15T07:40:14;-1.10;99.90
46139;DHT22;32398;49.112;8.598;2024-01-15T07:42:40;-1.00;99.90
46139;DHT22;32398;49.112;8.598;2024-01-15T07:45:08;-1.00;99.90
46139;DHT22;32398;49.112;8.598;2024-01-15T07:47:34;-1.00;99.90
46139;DHT22;32398;49.112;8.598;2024-01-15T07:50:02;-1.00;99.90
46139;DHT22;32398;49.112;8.598;2024-01-15T07:52:29;-1.00;99.90
46139;DHT22;32398;49.112;8.598;2024-01-15T07:54:56;-1.00;99.90
46139;DHT22;32398;49.112;8.598;2024-01-15T07:57:24;-1.00;99.90
46139;DHT22;32398;49.112;8.598;2024-01-15T07:59:51;-1.00;99.90
46139;DHT22;32398;49.112;8.598;2024-01-15T08:02:18;-1.00;99.90
46139;DHT22;32398;49.112;8.598;2024-01-15T08:04:44;-1.00;99.90
46139;DHT22;32398;49.112;8.598;2024-01-15T08:07:12;-1.00;99.90
46139;DHT22;32398;49.112;8.598;2024-01-15T08:09:39;-1.00;99.90
46139;DHT22;32398;49.112;8.598;2024-01-15T08:12:06;-1.00;99.90
46139;DHT22;32398;49.112;8.598;2024-01-15T08:14:35;-1.00;99.90
46139;DHT22;32398;49.112;8.598;2024-01-15T08:17:01;-1.00;99.90
46139;DHT22;32398;49.112;8.598;2024-01-15T08:19:28;-1.00;99.90
46139;DHT22;32398;49.112;8.598;2024-01-15T08:21:55;-0.90;99.90
46139;DHT22;32398;49.112;8.598;2024-01-15T08:24:23;-0.90;99.90
46139;DHT22;32398;49.112;8.598;2024-01-15T08:26:50;-0.90;99.90
46139;DHT22;32398;49.112;8.598;2024-01-15T08:29:16;-0.90;99.90
46139;DHT22;32398;49.112;8.598;2024-01-15T08:31:46;-0.90;99.90
46139;DHT22;32398;49.112;8.598;2024-01-15T08:34:12;-0.90;99.90
46139;DHT22;32398;49.112;8.598;2024-01-15T08:36:39;-0.90;99.90
46139;DHT22;32398;49.112;8.598;2024-01-15T08:39:06;-0.90;99.90
46139;DHT22;32398;49.112;8.598;2024-01-15T08:41:35;-0.80;99.90
46139;DHT22;32398;49.112;8.598;2024-01-15T08:44:02;-0.90;99.90
46139;DHT22;32398;49.112;8.598;2024-01-15T08:46:29;-0.90;99.90
46139;DHT22;32398;49.112;8.598;2024-01-15T08:48:56;-0.80;99.90
46139;DHT22;32398;49.112;8.598;2024-01-15T08:51:22;-0.80;99.90
46139;DHT22;32398;49.112;8.598;2024-01-15T08:53:49;-0.80;99.90
46139;DHT22;32398;49.112;8.598;2024-01-15T08:56:15;-0.80;99.90
46139;DHT22;32398;49.112;8.598;2024-01-15T08:58:43;-0.80;99.90
46139;DHT22;32398;49.112;8.598;2024-01-15T09:01:11;-0.80;99.90
46139;DHT22;32398;49.112;8.598;2024-01-15T09:03:38;-0.80;99.90
46139;DHT22;32398;49.112;8.598;2024-01-15T09:06:07;-0.80;99.90
46139;DHT22;32398;49.112;8.598;2024-01-15T09:08:34;-0.80;99.90
46139;DHT22;32398;49.112;8.598;2024-01-15T09:11:01;-0.80;99.90
46139;DHT22;32398;49.112;8.598;2024-01-15T09:13:29;-0.70;99.90
46139;DHT22;32398;49.112;8.598;2024-01-15T09:15:57;-0.70;99.90
46139;DHT22;32398;49.112;8.598;2024-01-15T09:18:24;-0.70;99.90
46139;DHT22;32398;49.112;8.598;2024-01-15T09:20:51;-0.70;99.90
46139;DHT22;32398;49.112;8.598;2024-01-15T09:23:17;-0.70;99.90
46139;DHT22;32398;49.112;8.598;2024-01-15T09:25:44;-0.70;99.90
46139;DHT22;32398;49.112;8.598;2024-01-15T09:28:10;-0.70;99.90
46139;DHT22;32398;49.112;8.598;2024-01-15T09:30:37;-0.70;99.90
46139;DHT22;32398;49.112;8.598;2024-01-15T09:33:05;-0.70;99.90
46139;DHT22;32398;49.112;8.598;2024-01-15T09:35:32;-0.70;99.90
46139;DHT22;32398;49.112;8.598;2024-01-15T09:37:59;-0.60;99.90
46139;DHT22;32398;49.112;8.598;2024-01-15T09:40:26;-0.60;99.90
46139;DHT22;32398;49.112;8.598;2024-01-15T09:42:56;-0.60;99.90
46139;DHT22;32398;49.112;8.598;2024-01-15T09:45:23;-0.60;99.90
46139;DHT22;32398;49.112;8.598;2024-01-15T09:47:50;-0.60;99.90
46139;DHT22;32398;49.112;8.598;2024-01-15T09:50:18;-0.60;99.90
46139;DHT22;32398;49.112;8.598;2024-01-15T09:52:45;-0.60;99.90
46139;DHT22;32398;49.112;8.598;2024-01-15T09:55:12;-0.50;99.90
46139;DHT22;32398;49.112;8.598;2024-01-15T09:57:40;-0.60;99.90
46139;DHT22;32398;49.112;8.598;2024-01-15T10:00:07;-0.60;99.90
46139;DHT22;32398;49.112;8.598;2024-01-15T10:02:36;-0.60;99.90
46139;DHT22;32398;49.112;8.598;2024-01-15T10:05:03;-0.50;99.90
46139;DHT22;32398;49.112;8.598;2024-01-15T10:07:31;-0.50;99.90
46139;DHT22;32398;49.112;8.598;2024-01-15T10:09:59;-0.50;99.90
46139;DHT22;32398;49.112;8.598;2024-01-15T10:12:26;-0.50;99.90
46139;DHT22;32398;49.112;8.598;2024-01-15T10:14:52;-0.30;99.90
46139;DHT22;32398;49.112;8.598;2024-01-15T10:17:19;-0.10;99.90
46139;DHT22;32398;49.112;8.598;2024-01-15T10:19:45;0.10;99.90
46139;DHT22;32398;49.112;8.598;2024-01-15T10:22:13;0.20;99.90
46139;DHT22;32398;49.112;8.598;2024-01-15T10:24:42;0.30;99.90
46139;DHT22;32398;49.112;8.598;2024-01-15T10:27:08;0.30;99.90
46139;DHT22;32398;49.112;8.598;2024-01-15T10:29:37;0.40;99.90
46139;DHT22;32398;49.112;8.598;2024-01-15T10:32:06;0.40;99.90
46139;DHT22;32398;49.112;8.598;2024-01-15T10:34:33;0.50;99.90
46139;DHT22;32398;49.112;8.598;2024-01-15T10:36:59;0.50;99.90
46139;DHT22;32398;49.112;8.598;2024-01-15T10:39:28;0.50;99.90
46139;DHT22;32398;49.112;8.598;2024-01-15T10:41:57;0.60;99.90
46139;DHT22;32398;49.112;8.598;2024-01-15T10:44:24;0.60;99.90
46139;DHT22;32398;49.112;8.598;2024-01-15T10:46:51;0.60;99.90
46139;DHT22;32398;49.112;8.598;2024-01-15T10:49:18;0.60;99.90
46139;DHT22;32398;49.112;8.598;2024-01-15T10:51:45;0.70;99.90
46139;DHT22;32398;49.112;8.598;2024-01-15T10:54:14;0.60;99.90
46139;DHT22;32398;49.112;8.598;2024-01-15T10:56:40;0.70;99.90
46139;DHT22;32398;49.112;8.598;2024-01-15T10:59:09;0.70;99.90
46139;DHT22;32398;49.112;8.598;2024-01-15T11:01:37;0.70;99.90
46139;DHT22;32398;49.112;8.598;2024-01-15T11:04:03;0.70;99.90
46139;DHT22;32398;49.112;8.598;2024-01-15T11:06:40;0.70;99.90
46139;DHT22;32398;49.112;8.598;2024-01-15T11:09:07;0.70;99.90
46139;DHT22;32398;49.112;8.598;2024-01-15T11:11:34;0.80;99.90
46139;DHT22;32398;49.112;8.598;2024-01-15T11:14:01;0.80;99.90
46139;DHT22;32398;49.112;8.598;2024-01-15T11:16:47;0.80;99.90
46139;DHT22;32398;49.112;8.598;2024-01-15T11:19:19;0.80;99.90
46139;DHT22;32398;49.112;8.598;2024-01-15T11:21:46;0.80;99.90
46139;DHT22;32398;49.112;8.598;2024-01-15T11:24:32;0.80;99.90
46139;DHT22;32398;49.112;8.598;2024-01-15T11:27:00;0.80;99.90
46139;DHT22;32398;49.112;8.598;2024-01-15T11:29:30;0.80;99.90
46139;DHT22;32398;49.112;8.598;2024-01-15T11:32:00;0.80;99.90
46139;DHT22;32398;49.112;8.598;2024-01-15T11:37:15;0.80;99.90
46139;DHT22;32398;49.112;8.598;2024-01-15T11:39:42;0.80;99.90
46139;DHT22;32398;49.112;8.598;2024-01-15T11:42:09;0.90;99.90
46139;DHT22;32398;49.112;8.598;2024-01-15T11:44:36;0.90;99.90
46139;DHT22;32398;49.112;8.598;2024-01-15T11:47:06;0.90;99.90
46139;DHT22;32398;49.112;8.598;2024-01-15T11:49:41;0.80;99.90
46139;DHT22;32398;49.112;8.598;2024-01-15T11:52:14;0.90;99.90
46139;DHT22;32398;49.112;8.598;2024-01-15T11:54:44;0.90;99.90
46139;DHT22;32398;49.112;8.598;2024-01-15T11:57:17;0.90;99.90
46139;DHT22;32398;49.112;8.598;2024-01-15T11:59:45;0.90;99.90
46139;DHT22;32398;49.112;8.598;2024-01-15T12:02:13;0.90;99.90
46139;DHT22;32398;49.112;8.598;2024-01-15T12:04:40;0.90;99.90
46139;DHT22;32398;49.112;8.598;2024-01-15T12:07:07;0.90;99.90
46139;DHT22;32398;49.112;8.598;2024-01-15T12:09:34;0.90;99.90
46139;DHT22;32398;49.112;8.598;2024-01-15T12:12:02;0.90;99.90
46139;DHT22;32398;49.112;8.598;2024-01-15T12:14:31;0.90;99.90
46139;DHT22;32398;49.112;8.598;2024-01-15T12:16:57;0.90;99.90
46139;DHT22;32398;49.112;8.598;2024-01-15T12:19:25;0.90;99.90
46139;DHT22;32398;49.112;8.598;2024-01-15T12:21:52;0.90;99.90
46139;DHT22;32398;49.112;8.598;2024-01-15T12:24:19;0.80;99.90
46139;DHT22;32398;49.112;8.598;2024-01-15T12:26:46;0.80;99.90
46139;DHT22;32398;49.112;8.598;2024-01-15T12:29:13;0.90;99.90
46139;DHT22;32398;49.112;8.598;2024-01-15T12:31:39;0.90;99.90
46139;DHT22;32398;49.112;8.598;2024-01-15T12:34:07;0.90;99.90
46139;DHT22;32398;49.112;8.598;2024-01-15T12:36:35;0.90;99.90
46139;DHT22;32398;49.112;8.598;2024-01-15T12:39:02;0.90;99.90
46139;DHT22;32398;49.112;8.598;2024-01-15T12:41:30;0.90;99.90
46139;DHT22;32398;49.112;8.598;2024-01-15T12:43:57;0.90;99.90
46139;DHT22;32398;49.112;8.598;2024-01-15T12:46:24;0.90;99.90
46139;DHT22;32398;49.112;8.598;2024-01-15T12:48:51;0.90;99.90
46139;DHT22;32398;49.112;8.598;2024-01-15T12:51:17;0.90;99.90
46139;DHT22;32398;49.112;8.598;2024-01-15T12:53:45;0.90;99.90
46139;DHT22;32398;49.112;8.598;2024-01-15T12:56:12;0.90;99.90
46139;DHT22;32398;49.112;8.598;2024-01-15T12:58:38;1.00;99.90
46139;DHT22;32398;49.112;8.598;2024-01-15T13:01:05;0.90;99.90
46139;DHT22;32398;49.112;8.598;2024-01-15T13:03:32;0.90;99.90
46139;DHT22;32398;49.112;8.598;2024-01-15T13:05:58;1.00;99.90
46139;DHT22;32398;49.112;8.598;2024-01-15T13:08:25;0.90;99.90
46139;DHT22;32398;49.112;8.598;2024-01-15T13:10:55;1.00;99.90
46139;DHT22;32398;49.112;8.598;2024-01-15T13:13:23;1.00;99.90
46139;DHT22;32398;49.112;8.598;2024-01-15T13:15:49;1.00;99.90
46139;DHT22;32398;49.112;8.598;2024-01-15T13:18:16;1.00;99.90
46139;DHT22;32398;49.112;8.598;2024-01-15T13:20:42;1.00;99.90
46139;DHT22;32398;49.112;8.598;2024-01-15T13:23:10;1.00;99.90
46139;DHT22;32398;49.112;8.598;2024-01-15T13:25:38;1.00;99.90
46139;DHT22;32398;49.112;8.598;2024-01-15T13:28:06;1.00;99.90
46139;DHT22;32398;49.112;8.598;2024-01-15T13:30:33;1.00;99.90
46139;DHT22;32398;49.112;8.598;2024-01-15T13:32:59;1.10;99.90
46139;DHT22;32398;49.112;8.598;2024-01-15T13:35:29;1.10;99.90
46139;DHT22;32398;49.112;8.598;2024-01-15T13:37:56;1.00;99.90
46139;DHT22;32398;49.112;8.598;2024-01-15T13:40:22;1.00;99.90
46139;DHT22;32398;49.112;8.598;2024-01-15T13:42:50;1.10;99.90
46139;DHT22;32398;49.112;8.598;2024-01-15T13:45:19;1.10;99.90
46139;DHT22;32398;49.112;8.598;2024-01-15T13:47:46;1.10;99.90
46139;DHT22;32398;49.112;8.598;2024-01-15T13:50:12;1.10;99.90
46139;DHT22;32398;49.112;8.598;2024-01-15T13:52:39;1.10;99.90
46139;DHT22;32398;49.112;8.598;2024-01-15T13:55:06;1.10;99.90
46139;DHT22;32398;49.112;8.598;2024-01-15T13:57:34;1.10;99.90
46139;DHT22;32398;49.112;8.598;2024-01-15T14:00:01;1.10;99.90
46139;DHT22;32398;49.112;8.598;2024-01-15T14:02:29;1.10;99.90
46139;DHT22;32398;49.112;8.598;2024-01-15T14:04:55;1.10;99.90
46139;DHT22;32398;49.112;8.598;2024-01-15T14:07:22;1.10;99.90
46139;DHT22;32398;49.112;8.598;2024-01-15T14:09:49;1.10;99.90
46139;DHT22;32398;49.112;8.598;2024-01-15T14:12:15;1.20;99.90
46139;DHT22;32398;49.112;8.598;2024-01-15T14:14:42;1.10;99.90
46139;DHT22;32398;49.112;8.598;2024-01-15T14:17:08;1.20;99.90
46139;DHT22;32398;49.112;8.598;2024-01-15T14:19:37;1.20;99.90
46139;DHT22;32398;49.112;8.598;2024-01-15T14:22:03;1.30;99.90
46139;DHT22;32398;49.112;8.598;2024-01-15T14:24:30;1.20;99.90
46139;DHT22;32398;49.112;8.598;2024-01-15T14:26:57;1.20;99.90
46139;DHT22;32398;49.112;8.598;2024-01-15T14:29:23;1.20;99.90
46139;DHT22;32398;49.112;8.598;2024-01-15T14:31:52;1.20;99.90
46139;DHT22;32398;49.112;8.598;2024-01-15T14:34:18;1.20;99.90
46139;DHT22;32398;49.112;8.598;2024-01-15T14:36:50;1.30;99.90
46139;DHT22;32398;49.112;8.598;2024-01-15T14:39:19;1.20;99.90
46139;DHT22;32398;49.112;8.598;2024-01-15T14:41:46;1.20;99.90
46139;DHT22;32398;49.112;8.598;2024-01-15T14:44:13;1.20;99.90
46139;DHT22;32398;49.112;8.598;2024-01-15T14:46:40;1.20;99.90
46139;DHT22;32398;49.112;8.598;2024-01-15T14:49:06;1.30;99.90
46139;DHT22;32398;49.112;8.598;2024-01-15T14:51:33;1.20;99.90
46139;DHT22;32398;49.112;8.598;2024-01-15T14:54:01;1.30;99.90
46139;DHT22;32398;49.112;8.598;2024-01-15T14:56:28;1.30;99.90
46139;DHT22;32398;49.112;8.598;2024-01-15T14:58:55;1.30;99.90
46139;DHT22;32398;49.112;8.598;2024-01-15T15:01:21;1.20;99.90
46139;DHT22;32398;49.112;8.598;2024-01-15T15:03:48;1.20;99.90
46139;DHT22;32398;49.112;8.598;2024-01-15T15:06:15;1.20;99.90
46139;DHT22;32398;49.112;8.598;2024-01-15T15:08:41;1.20;99.90
46139;DHT22;32398;49.112;8.598;2024-01-15T15:11:09;1.20;99.90
46139;DHT22;32398;49.112;8.598;2024-01-15T15:13:36;1.20;99.90
46139;DHT22;32398;49.112;8.598;2024-01-15T15:16:03;1.20;99.90
46139;DHT22;32398;49.112;8.598;2024-01-15T15:18:31;1.20;99.90
46139;DHT22;32398;49.112;8.598;2024-01-15T15:20:59;1.20;99.90
46139;DHT22;32398;49.112;8.598;2024-01-15T15:23:25;1.20;99.90
46139;DHT22;32398;49.112;8.598;2024-01-15T15:25:52;1.20;99.90
46139;DHT22;32398;49.112;8.598;2024-01-15T15:28:20;1.20;99.90
46139;DHT22;32398;49.112;8.598;2024-01-15T15:30:47;1.20;99.90
46139;DHT22;32398;49.112;8.598;2024-01-15T15:33:14;1.20;99.90
46139;DHT22;32398;49.112;8.598;2024-01-15T15:35:41;1.20;99.90
46139;DHT22;32398;49.112;8.598;2024-01-15T15:38:07;1.20;99.90